createdAt,value
2022-09-07T00:00:26.811Z,6.35
2022-09-07T00:02:56.872Z,5.55
2022-09-07T00:05:26.701Z,5.82
2022-09-07T00:07:56.945Z,6.55
2022-09-07T00:10:27.751Z,6.20
2022-09-07T00:13:00.222Z,6.28
2022-09-07T00:15:31.198Z,5.83
2022-09-07T00:18:01.500Z,6.20
2022-09-07T00:20:32.597Z,6.70
2022-09-07T00:23:06.078Z,6.10
2022-09-07T00:25:42.773Z,6.47
2022-09-07T00:28:17.811Z,6.72
2022-09-07T00:30:53.442Z,6.13
2022-09-07T00:33:27.860Z,5.18
2022-09-07T00:36:01.466Z,5.75
2022-09-07T00:38:35.831Z,6.88
2022-09-07T00:41:13.798Z,5.97
2022-09-07T00:43:52.043Z,6.20
2022-09-07T00:46:30.438Z,6.75
2022-09-07T00:49:11.285Z,6.93
2022-09-07T00:51:49.287Z,6.90
2022-09-07T00:54:24.429Z,7.80
2022-09-07T00:56:56.532Z,7.13
2022-09-07T00:59:34.436Z,5.20
2022-09-07T01:02:07.552Z,5.40
2022-09-07T01:04:39.442Z,7.22
2022-09-07T01:07:11.457Z,6.95
2022-09-07T01:09:43.506Z,7.00
2022-09-07T01:12:16.417Z,5.22
2022-09-07T01:14:52.410Z,5.13
2022-09-07T01:17:33.457Z,7.80
2022-09-07T01:20:40.496Z,7.20
2022-09-07T01:23:54.404Z,5.30
2022-09-07T01:27:18.406Z,4.80
2022-09-07T01:29:56.768Z,7.43
2022-09-07T01:32:35.621Z,8.60
2022-09-07T01:35:09.662Z,8.60
2022-09-07T01:37:45.126Z,8.85
2022-09-07T01:40:20.105Z,7.93
2022-09-07T01:42:55.421Z,9.60
2022-09-07T01:45:31.169Z,10.00
2022-09-07T01:48:04.119Z,10.88
2022-09-07T01:50:38.787Z,10.52
2022-09-07T01:53:15.285Z,9.65
2022-09-07T01:55:49.146Z,5.68
2022-09-07T01:58:28.356Z,6.07
2022-09-07T02:01:08.248Z,5.75
2022-09-07T02:03:41.870Z,6.80
2022-09-07T02:06:17.568Z,6.50
2022-09-07T02:08:54.876Z,7.55
2022-09-07T02:11:41.749Z,8.20
2022-09-07T02:14:19.397Z,8.32
2022-09-07T02:17:00.509Z,8.45
2022-09-07T02:19:38.492Z,8.05
2022-09-07T02:22:14.324Z,7.80
2022-09-07T02:24:51.526Z,5.90
2022-09-07T02:27:32.349Z,5.32
2022-09-07T02:30:14.470Z,6.70
2022-09-07T02:32:54.428Z,5.35
2022-09-07T02:35:26.676Z,4.68
2022-09-07T02:38:00.324Z,5.10
2022-09-07T02:40:32.320Z,4.82
2022-09-07T02:43:05.077Z,5.82
2022-09-07T02:45:46.776Z,4.95
2022-09-07T02:48:51.177Z,5.40
2022-09-07T02:51:35.783Z,4.90
2022-09-07T02:54:27.737Z,5.35
2022-09-07T02:57:14.020Z,5.05
2022-09-07T02:59:57.858Z,4.90
2022-09-07T03:02:47.945Z,3.40
2022-09-07T03:05:34.058Z,4.43
2022-09-07T03:08:08.640Z,4.13
2022-09-07T03:10:42.375Z,4.43
2022-09-07T03:13:23.033Z,3.60
2022-09-07T03:16:04.655Z,4.93
2022-09-07T03:18:35.360Z,4.22
2022-09-07T03:21:09.738Z,3.80
2022-09-07T03:23:48.848Z,5.20
2022-09-07T03:26:30.308Z,4.43
2022-09-07T03:29:19.060Z,4.28
2022-09-07T03:31:53.971Z,4.20
2022-09-07T03:34:27.809Z,3.42
2022-09-07T03:37:03.093Z,4.93
2022-09-07T03:39:36.543Z,3.58
2022-09-07T03:42:19.471Z,3.53
2022-09-07T03:45:06.574Z,4.00
2022-09-07T03:47:39.750Z,3.15
2022-09-07T03:50:11.159Z,2.67
2022-09-07T03:52:45.974Z,2.70
2022-09-07T03:55:16.511Z,2.47
2022-09-07T03:57:48.631Z,2.45
2022-09-07T04:00:20.741Z,3.15
2022-09-07T04:02:54.334Z,2.75
2022-09-07T04:05:25.762Z,2.70
2022-09-07T04:08:01.602Z,2.83
2022-09-07T04:10:33.559Z,2.63
2022-09-07T04:13:13.955Z,2.70
2022-09-07T04:15:47.086Z,3.00
2022-09-07T04:18:20.721Z,2.67
2022-09-07T04:20:54.000Z,2.67
2022-09-07T04:23:27.138Z,2.40
2022-09-07T04:25:57.389Z,3.05
2022-09-07T04:28:28.023Z,2.83
2022-09-07T04:30:58.432Z,2.53
2022-09-07T04:33:31.181Z,3.00
2022-09-07T04:36:07.599Z,3.20
2022-09-07T04:38:41.573Z,3.45
2022-09-07T04:41:15.691Z,3.03
2022-09-07T04:43:49.316Z,5.05
2022-09-07T04:49:04.396Z,3.50
2022-09-07T04:51:39.424Z,4.10
2022-09-07T04:54:13.729Z,3.55
2022-09-07T04:56:45.119Z,3.90
2022-09-07T04:59:17.444Z,3.83
2022-09-07T05:01:50.362Z,4.20
2022-09-07T05:04:21.214Z,4.20
2022-09-07T05:06:53.463Z,4.53
2022-09-07T05:09:26.180Z,3.63
2022-09-07T05:11:57.665Z,4.18
2022-09-07T05:14:29.038Z,4.53
2022-09-07T05:17:02.733Z,5.45
2022-09-07T05:19:33.239Z,4.47
2022-09-07T05:22:04.505Z,5.10
2022-09-07T05:24:40.474Z,4.70
2022-09-07T05:27:11.521Z,5.07
2022-09-07T05:32:35.508Z,5.60
2022-09-07T05:35:07.674Z,6.75
2022-09-07T05:37:39.158Z,5.47
2022-09-07T05:40:15.919Z,8.40
2022-09-07T05:42:47.504Z,9.63
2022-09-07T05:45:18.407Z,8.75
2022-09-07T05:47:52.167Z,10.98
2022-09-07T05:50:23.929Z,11.77
2022-09-07T05:52:55.320Z,11.70
2022-09-07T05:55:32.194Z,11.70
2022-09-07T05:58:02.221Z,12.80
2022-09-07T06:00:32.915Z,12.60
2022-09-07T06:03:03.603Z,11.73
2022-09-07T06:05:34.418Z,11.57
2022-09-07T06:08:08.779Z,10.48
2022-09-07T06:13:13.755Z,11.73
2022-09-07T06:15:44.795Z,14.27
2022-09-07T06:18:13.543Z,13.00
2022-09-07T06:20:53.120Z,15.15
2022-09-07T06:23:30.943Z,18.00
2022-09-07T06:26:12.512Z,16.13
2022-09-07T06:28:44.760Z,16.27
2022-09-07T06:31:18.714Z,13.65
2022-09-07T06:33:52.290Z,13.82
2022-09-07T06:36:25.243Z,12.32
2022-09-07T06:38:59.806Z,11.18
2022-09-07T06:44:29.836Z,12.63
2022-09-07T06:47:03.379Z,12.02
2022-09-07T06:49:34.115Z,11.25
2022-09-07T06:52:06.224Z,11.15
2022-09-07T06:54:58.726Z,14.10
2022-09-07T06:57:28.963Z,14.00
2022-09-07T06:59:57.467Z,14.35
2022-09-07T07:02:26.123Z,14.18
2022-09-07T07:04:54.836Z,13.48
2022-09-07T07:07:23.575Z,13.60
2022-09-07T07:09:54.220Z,16.33
2022-09-07T07:14:51.791Z,17.15
2022-09-07T07:17:27.889Z,15.10
2022-09-07T07:19:58.584Z,15.82
2022-09-07T07:22:46.156Z,18.95
2022-09-07T07:25:18.393Z,16.50
2022-09-07T07:27:50.832Z,17.52
2022-09-07T07:35:27.122Z,15.98
2022-09-07T07:43:57.133Z,15.45
2022-09-07T07:46:32.710Z,15.98
2022-09-07T07:49:06.406Z,14.43
2022-09-07T07:54:26.893Z,14.65
2022-09-07T07:57:00.510Z,14.43
2022-09-07T07:59:31.954Z,14.55
2022-09-07T08:02:05.662Z,16.10
2022-09-07T08:04:37.765Z,18.10
2022-09-07T08:07:13.598Z,18.23
2022-09-07T08:09:45.458Z,18.02
2022-09-07T08:12:23.226Z,17.88
2022-09-07T08:14:54.660Z,18.52
2022-09-07T08:17:30.102Z,19.08
2022-09-07T08:20:04.688Z,18.95
2022-09-07T08:22:34.949Z,20.33
2022-09-07T08:25:04.410Z,17.38
2022-09-07T08:27:35.824Z,17.98
2022-09-07T08:30:06.452Z,17.42
2022-09-07T08:32:46.371Z,18.70
2022-09-07T08:35:20.451Z,19.13
2022-09-07T08:37:53.439Z,18.80
2022-09-07T08:40:23.654Z,18.00
2022-09-07T08:43:08.235Z,18.85
2022-09-07T08:45:45.803Z,19.88
2022-09-07T08:48:24.964Z,18.40
2022-09-07T08:51:02.234Z,18.90
2022-09-07T08:53:37.866Z,16.80
2022-09-07T08:56:10.446Z,19.38
2022-09-07T08:58:49.148Z,20.42
2022-09-07T09:01:39.513Z,19.35
2022-09-07T09:04:27.401Z,19.73
2022-09-07T09:07:14.618Z,20.60
2022-09-07T09:10:23.985Z,20.35
2022-09-07T09:13:15.162Z,20.88
2022-09-07T09:16:01.933Z,19.67
2022-09-07T09:18:50.819Z,20.40
2022-09-07T09:21:25.010Z,20.83
2022-09-07T09:24:05.603Z,20.65
2022-09-07T09:26:38.916Z,19.85
2022-09-07T09:29:16.584Z,17.60
2022-09-07T09:31:49.087Z,19.77
2022-09-07T09:34:34.641Z,18.98
2022-09-07T09:37:24.958Z,19.27
2022-09-07T09:40:02.688Z,18.60
2022-09-07T09:42:35.333Z,19.52
2022-09-07T09:45:14.717Z,18.17
2022-09-07T09:47:51.501Z,19.02
2022-09-07T09:53:32.838Z,19.10
2022-09-07T09:56:06.311Z,19.02
2022-09-07T10:04:36.782Z,17.08
2022-09-07T10:07:19.693Z,16.92
2022-09-07T10:09:55.115Z,16.25
2022-09-07T10:12:32.784Z,16.98
2022-09-07T10:15:05.469Z,15.43
2022-09-07T10:17:37.611Z,15.15
2022-09-07T10:20:32.983Z,12.75
2022-09-07T10:25:41.818Z,12.30
2022-09-07T10:28:21.825Z,12.40
2022-09-07T10:31:15.262Z,12.45
2022-09-07T10:37:04.782Z,9.93
2022-09-07T10:39:50.496Z,10.23
2022-09-07T10:42:30.549Z,10.45
2022-09-07T10:45:20.819Z,8.48
2022-09-07T10:48:03.745Z,10.25
2022-09-07T10:50:40.154Z,10.15
2022-09-07T10:53:42.093Z,8.15
2022-09-07T10:56:19.317Z,8.00
2022-09-07T10:59:04.702Z,7.18
2022-09-07T11:01:46.763Z,6.80
2022-09-07T11:04:38.452Z,5.85
2022-09-07T11:07:18.998Z,5.82
2022-09-07T11:10:00.432Z,7.60
2022-09-07T11:12:32.410Z,7.25
2022-09-07T11:15:15.581Z,6.32
2022-09-07T11:17:52.608Z,6.25
2022-09-07T11:20:29.631Z,5.63
2022-09-07T11:23:11.316Z,5.38
2022-09-07T11:25:52.099Z,5.35
2022-09-07T11:28:30.208Z,5.97
2022-09-07T11:31:24.128Z,5.97
2022-09-07T11:36:59.060Z,6.40
2022-09-07T11:39:44.384Z,4.38
2022-09-07T11:42:44.598Z,6.15
2022-09-07T11:45:43.228Z,5.90
2022-09-07T11:48:36.630Z,5.25
2022-09-07T11:51:16.594Z,4.40
2022-09-07T11:53:54.404Z,5.13
2022-09-07T11:56:36.582Z,4.20
2022-09-07T11:59:36.800Z,3.55
2022-09-07T12:02:59.286Z,2.90
2022-09-07T12:06:11.366Z,3.00
2022-09-07T12:09:03.026Z,2.67
2022-09-07T12:11:48.234Z,3.10
2022-09-07T12:14:29.762Z,2.55
2022-09-07T12:17:36.550Z,2.25
2022-09-07T12:20:17.129Z,2.42
2022-09-07T12:23:18.709Z,2.40
2022-09-07T12:26:17.556Z,2.28
2022-09-07T12:29:23.463Z,1.50
2022-09-07T12:31:59.343Z,1.80
2022-09-07T12:34:55.269Z,1.95
2022-09-07T12:37:41.800Z,1.20
2022-09-07T12:41:02.019Z,1.77
2022-09-07T12:44:17.318Z,1.48
2022-09-07T12:46:56.454Z,1.92
2022-09-07T12:49:42.726Z,1.85
2022-09-07T12:52:33.603Z,1.58
2022-09-07T12:55:27.864Z,1.63
2022-09-07T12:58:13.925Z,1.38
2022-09-07T13:01:05.199Z,1.20
2022-09-07T13:04:01.187Z,1.83
2022-09-07T13:09:34.654Z,1.25
2022-09-07T13:12:07.288Z,1.55
2022-09-07T13:14:39.600Z,1.02
2022-09-07T13:17:44.667Z,1.40
2022-09-07T13:20:30.336Z,2.00
2022-09-07T13:23:22.377Z,2.30
2022-09-07T13:25:57.800Z,1.63
2022-09-07T13:28:40.339Z,1.95
2022-09-07T13:31:31.933Z,1.73
2022-09-07T13:34:49.258Z,1.42
2022-09-07T13:37:25.374Z,1.38
2022-09-07T13:39:59.526Z,1.45
2022-09-07T13:42:34.028Z,1.38
2022-09-07T13:45:10.191Z,1.52
2022-09-07T13:47:55.345Z,1.65
2022-09-07T13:50:39.577Z,1.17
2022-09-07T13:53:35.094Z,1.00
2022-09-07T13:56:20.994Z,1.65
2022-09-07T13:58:57.486Z,1.80
2022-09-07T14:01:30.348Z,1.75
2022-09-07T14:06:43.950Z,1.27
2022-09-07T14:09:19.909Z,1.35
2022-09-07T14:11:57.519Z,1.33
2022-09-07T14:14:27.971Z,1.23
2022-09-07T14:17:13.521Z,0.90
2022-09-07T14:19:45.718Z,1.48
2022-09-07T14:22:20.366Z,1.35
2022-09-07T14:24:56.485Z,1.27
2022-09-07T14:27:31.197Z,1.30
2022-09-07T14:30:28.562Z,1.10
2022-09-07T14:33:01.074Z,1.20
2022-09-07T14:35:34.383Z,1.10
2022-09-07T14:38:13.474Z,1.02
2022-09-07T14:40:51.601Z,1.30
2022-09-07T14:43:33.526Z,1.00
2022-09-07T14:46:17.544Z,1.10
2022-09-07T14:48:50.146Z,1.25
2022-09-07T14:51:35.287Z,1.40
2022-09-07T14:54:11.444Z,1.58
2022-09-07T14:57:01.606Z,0.85
2022-09-07T14:59:43.111Z,1.60
2022-09-07T15:02:41.504Z,1.25
2022-09-07T15:05:23.861Z,1.40
2022-09-07T15:07:54.459Z,1.10
2022-09-07T15:10:41.617Z,1.45
2022-09-07T15:13:37.847Z,1.20
2022-09-07T15:16:10.951Z,1.27
2022-09-07T15:21:39.736Z,1.42
2022-09-07T15:24:13.517Z,1.30
2022-09-07T15:29:42.055Z,1.05
2022-09-07T15:32:16.718Z,1.20
2022-09-07T15:34:49.613Z,1.35
2022-09-07T15:40:17.065Z,0.90
2022-09-07T15:43:11.455Z,1.33
2022-09-07T15:45:47.662Z,1.60
2022-09-07T15:48:20.494Z,1.35
2022-09-07T15:50:50.435Z,1.73
2022-09-07T15:56:08.070Z,1.80
2022-09-07T15:58:37.999Z,1.55
2022-09-07T16:04:01.652Z,2.17
2022-09-07T16:06:35.895Z,2.55
2022-09-07T16:09:06.369Z,3.42
2022-09-07T16:11:35.667Z,11.93
2022-09-07T16:14:07.818Z,10.50
2022-09-07T16:19:34.945Z,15.77
2022-09-07T16:22:04.907Z,8.55
2022-09-07T16:24:36.067Z,14.68
2022-09-07T16:27:06.510Z,11.65
2022-09-07T16:29:36.319Z,14.48
2022-09-07T16:34:56.515Z,7.50
2022-09-07T16:37:25.830Z,3.65
2022-09-07T16:39:56.678Z,3.72
2022-09-07T16:42:25.820Z,2.97
2022-09-07T16:46:02.560Z,3.40
2022-09-07T16:47:49.175Z,13.88
2022-09-07T16:50:19.188Z,6.90
2022-09-07T16:52:49.881Z,3.72
2022-09-07T16:55:18.251Z,3.30
2022-09-07T17:00:39.317Z,4.28
2022-09-07T17:03:09.512Z,4.32
2022-09-07T17:05:42.143Z,5.40
2022-09-07T17:08:15.387Z,4.97
2022-09-07T17:10:45.712Z,6.15
2022-09-07T17:13:14.945Z,6.57
2022-09-07T17:15:44.868Z,10.05
2022-09-07T17:18:17.057Z,8.68
2022-09-07T17:20:58.361Z,9.05
2022-09-07T17:23:30.541Z,11.15
2022-09-07T17:26:06.483Z,9.63
2022-09-07T17:28:37.213Z,10.45
2022-09-07T17:31:09.082Z,9.20
2022-09-07T17:33:43.677Z,9.00
2022-09-07T17:36:15.886Z,9.27
2022-09-07T17:41:38.331Z,7.03
2022-09-07T17:44:08.934Z,8.35
2022-09-07T17:46:38.601Z,8.35
2022-09-07T17:49:12.592Z,7.55
2022-09-07T17:51:42.776Z,6.55
2022-09-07T17:54:15.947Z,6.07
2022-09-07T17:56:47.379Z,7.05
2022-09-07T18:02:07.024Z,5.80
2022-09-07T18:04:37.274Z,6.03
2022-09-07T18:07:07.252Z,6.35
2022-09-07T18:09:37.039Z,5.70
2022-09-07T18:12:07.190Z,9.80
2022-09-07T18:14:37.600Z,10.40
2022-09-07T18:17:07.242Z,13.32
2022-09-07T18:19:38.578Z,11.13
2022-09-07T18:22:08.718Z,10.75
2022-09-07T18:24:37.955Z,8.20
2022-09-07T18:27:08.113Z,7.18
2022-09-07T18:29:38.136Z,9.40
2022-09-07T18:32:09.878Z,8.45
2022-09-07T18:34:43.956Z,7.88
2022-09-07T18:37:15.535Z,8.00
2022-09-07T18:39:45.182Z,7.78
2022-09-07T18:42:14.806Z,6.82
2022-09-07T18:47:32.598Z,7.07
2022-09-07T18:50:02.553Z,7.28
2022-09-07T18:55:24.281Z,10.98
2022-09-07T18:57:53.034Z,10.35
2022-09-07T19:00:21.702Z,13.45
2022-09-07T19:02:52.078Z,14.93
2022-09-07T19:08:11.338Z,10.73
2022-09-07T19:10:41.307Z,12.52
2022-09-07T19:13:10.847Z,13.75
2022-09-07T19:15:41.365Z,13.38
2022-09-07T19:18:12.908Z,18.60
2022-09-07T19:20:44.608Z,16.57
2022-09-07T19:23:13.771Z,28.08
2022-09-07T19:25:43.845Z,28.52
2022-09-07T19:28:14.454Z,47.63
2022-09-07T19:30:43.144Z,40.13
2022-09-07T19:33:12.696Z,37.70
2022-09-07T19:35:41.717Z,19.98
2022-09-07T19:38:13.444Z,21.42
2022-09-07T19:40:42.850Z,20.08
2022-09-07T19:43:12.031Z,16.92
2022-09-07T19:45:41.977Z,18.05
2022-09-07T19:48:10.715Z,17.73
2022-09-07T19:50:40.438Z,14.90
2022-09-07T19:53:09.598Z,12.63
2022-09-07T19:55:41.367Z,10.30
2022-09-07T19:58:12.434Z,10.00
2022-09-07T20:00:44.265Z,10.35
2022-09-07T20:03:14.112Z,11.40
2022-09-07T20:05:43.017Z,11.80
2022-09-07T20:08:13.423Z,14.85
2022-09-07T20:10:45.114Z,12.93
2022-09-07T20:13:15.244Z,10.77
2022-09-07T20:15:46.073Z,10.10
2022-09-07T20:18:15.634Z,10.25
2022-09-07T20:20:46.147Z,15.15
2022-09-07T20:23:14.867Z,12.88
2022-09-07T20:25:45.137Z,12.18
2022-09-07T20:28:16.205Z,10.77
2022-09-07T20:30:44.790Z,7.82
2022-09-07T20:33:14.106Z,7.97
2022-09-07T20:35:45.559Z,7.65
2022-09-07T20:38:17.214Z,6.25
2022-09-07T20:40:54.346Z,5.43
2022-09-07T20:43:23.668Z,9.43
2022-09-07T20:45:52.942Z,11.13
2022-09-07T20:48:22.240Z,11.27
2022-09-07T20:50:56.518Z,12.20
2022-09-07T20:53:26.116Z,12.65
2022-09-07T20:56:05.366Z,11.43
2022-09-07T20:58:36.632Z,10.65
2022-09-07T21:01:07.680Z,9.82
2022-09-07T21:03:39.164Z,8.55
2022-09-07T21:06:10.637Z,15.20
2022-09-07T21:08:42.040Z,12.13
2022-09-07T21:11:16.837Z,11.50
2022-09-07T21:13:47.146Z,12.02
2022-09-07T21:16:18.811Z,11.35
2022-09-07T21:18:49.268Z,13.88
2022-09-07T21:21:20.603Z,17.40
2022-09-07T21:23:51.657Z,15.63
2022-09-07T21:26:24.441Z,18.05
2022-09-07T21:28:57.364Z,16.73
2022-09-07T21:31:27.454Z,14.35
2022-09-07T21:33:59.307Z,12.23
2022-09-07T21:36:31.239Z,11.48
2022-09-07T21:39:02.187Z,9.65
2022-09-07T21:41:34.824Z,9.52
2022-09-07T21:44:05.592Z,8.20
2022-09-07T21:46:36.762Z,7.38
2022-09-07T21:49:05.920Z,14.02
2022-09-07T21:51:33.935Z,14.60
2022-09-07T21:54:04.128Z,13.65
2022-09-07T21:56:40.126Z,12.80
2022-09-07T21:59:10.834Z,18.48
2022-09-07T22:01:43.233Z,24.40
2022-09-07T22:04:14.873Z,7.95
2022-09-07T22:06:46.901Z,5.75
2022-09-07T22:09:18.168Z,5.25
2022-09-07T22:11:50.014Z,4.63
2022-09-07T22:14:21.158Z,4.88
2022-09-07T22:16:53.117Z,5.20
2022-09-07T22:19:24.780Z,6.05
2022-09-07T22:21:56.468Z,6.72
2022-09-07T22:24:30.293Z,6.38
2022-09-07T22:27:02.414Z,6.65
2022-09-07T22:29:37.651Z,7.53
2022-09-07T22:32:08.539Z,7.07
2022-09-07T22:34:47.286Z,7.28
2022-09-07T22:37:27.378Z,9.13
2022-09-07T22:39:58.032Z,11.02
2022-09-07T22:42:33.609Z,12.45
2022-09-07T22:45:25.552Z,12.65
2022-09-07T22:48:13.003Z,13.43
2022-09-07T22:50:46.889Z,12.35
2022-09-07T22:53:17.925Z,13.55
2022-09-07T22:55:53.186Z,13.40
2022-09-07T22:58:30.229Z,13.35
2022-09-07T23:01:07.622Z,11.40
2022-09-07T23:03:45.419Z,10.27
2022-09-07T23:06:23.076Z,10.02
2022-09-07T23:08:54.168Z,8.73
2022-09-07T23:11:40.318Z,9.45
2022-09-07T23:14:32.051Z,9.38
2022-09-07T23:17:22.566Z,9.00
2022-09-07T23:20:00.038Z,7.78
2022-09-07T23:22:31.052Z,8.27
2022-09-07T23:25:02.940Z,7.72
2022-09-07T23:27:36.302Z,7.60
2022-09-07T23:32:43.444Z,8.50
2022-09-07T23:35:16.642Z,7.90
2022-09-07T23:37:51.968Z,8.20
2022-09-07T23:40:22.231Z,8.40
2022-09-07T23:42:50.817Z,8.95
2022-09-07T23:45:27.655Z,8.50
2022-09-07T23:47:59.207Z,9.23
2022-09-07T23:50:40.118Z,9.20
2022-09-07T23:53:18.566Z,8.05
2022-09-07T23:55:51.190Z,8.43
2022-09-07T23:58:20.663Z,8.35
